sensor_id;sensor_type;location;lat;lon;timestamp;P1;durP1;ratioP1;P2;durP2;ratioP2
73264;SDS011;61493;51.008;14.088;2023-06-22T00:00:59;6.50;;;4.25;;
73264;SDS011;61493;51.008;14.088;2023-06-22T00:03:25;7.85;;;4.82;;
73264;SDS011;61493;51.008;14.088;2023-06-22T00:05:51;8.05;;;4.50;;
73264;SDS011;61493;51.008;14.088;2023-06-22T00:08:16;7.13;;;5.30;;
73264;SDS011;61493;51.008;14.088;2023-06-22T00:10:42;7.95;;;5.63;;
73264;SDS011;61493;51.008;14.088;2023-06-22T00:13:07;8.65;;;5.95;;
73264;SDS011;61493;51.008;14.088;2023-06-22T00:15:33;8.45;;;5.88;;
73264;SDS011;61493;51.008;14.088;2023-06-22T00:17:58;8.98;;;6.20;;
73264;SDS011;61493;51.008;14.088;2023-06-22T00:20:24;10.43;;;7.15;;
73264;SDS011;61493;51.008;14.088;2023-06-22T00:22:56;10.27;;;6.15;;
73264;SDS011;61493;51.008;14.088;2023-06-22T00:25:21;9.07;;;5.45;;
73264;SDS011;61493;51.008;14.088;2023-06-22T00:27:46;8.88;;;5.47;;
73264;SDS011;61493;51.008;14.088;2023-06-22T00:30:12;9.55;;;6.15;;
73264;SDS011;61493;51.008;14.088;2023-06-22T00:32:37;8.68;;;5.78;;
73264;SDS011;61493;51.008;14.088;2023-06-22T00:35:02;8.90;;;5.72;;
73264;SDS011;61493;51.008;14.088;2023-06-22T00:37:27;10.27;;;6.28;;
73264;SDS011;61493;51.008;14.088;2023-06-22T00:39:54;8.75;;;6.13;;
73264;SDS011;61493;51.008;14.088;2023-06-22T00:42:20;9.20;;;5.95;;
73264;SDS011;61493;51.008;14.088;2023-06-22T00:44:45;8.82;;;5.82;;
73264;SDS011;61493;51.008;14.088;2023-06-22T00:47:14;8.43;;;6.28;;
73264;SDS011;61493;51.008;14.088;2023-06-22T00:49:40;8.60;;;6.20;;
73264;SDS011;61493;51.008;14.088;2023-06-22T00:52:06;7.25;;;5.13;;
73264;SDS011;61493;51.008;14.088;2023-06-22T00:54:42;10.93;;;6.03;;
73264;SDS011;61493;51.008;14.088;2023-06-22T00:57:10;8.45;;;5.53;;
73264;SDS011;61493;51.008;14.088;2023-06-22T00:59:36;8.00;;;5.32;;
73264;SDS011;61493;51.008;14.088;2023-06-22T01:02:02;8.23;;;5.30;;
73264;SDS011;61493;51.008;14.088;2023-06-22T01:04:33;9.25;;;5.57;;
73264;SDS011;61493;51.008;14.088;2023-06-22T01:07:10;8.63;;;5.68;;
73264;SDS011;61493;51.008;14.088;2023-06-22T01:09:41;8.30;;;5.53;;
73264;SDS011;61493;51.008;14.088;2023-06-22T01:12:10;9.32;;;6.82;;
73264;SDS011;61493;51.008;14.088;2023-06-22T01:14:42;10.23;;;6.05;;
73264;SDS011;61493;51.008;14.088;2023-06-22T01:17:08;9.55;;;5.68;;
73264;SDS011;61493;51.008;14.088;2023-06-22T01:19:39;7.60;;;5.10;;
73264;SDS011;61493;51.008;14.088;2023-06-22T01:22:06;7.97;;;6.15;;
73264;SDS011;61493;51.008;14.088;2023-06-22T01:24:41;8.52;;;5.93;;
73264;SDS011;61493;51.008;14.088;2023-06-22T01:29:41;9.52;;;6.18;;
73264;SDS011;61493;51.008;14.088;2023-06-22T01:32:08;9.02;;;5.70;;
73264;SDS011;61493;51.008;14.088;2023-06-22T01:34:33;9.80;;;6.05;;
73264;SDS011;61493;51.008;14.088;2023-06-22T01:36:59;9.18;;;6.20;;
73264;SDS011;61493;51.008;14.088;2023-06-22T01:39:26;10.02;;;5.50;;
73264;SDS011;61493;51.008;14.088;2023-06-22T01:41:52;10.27;;;6.00;;
73264;SDS011;61493;51.008;14.088;2023-06-22T01:44:18;10.35;;;5.85;;
73264;SDS011;61493;51.008;14.088;2023-06-22T01:46:43;9.63;;;5.70;;
73264;SDS011;61493;51.008;14.088;2023-06-22T01:49:09;8.43;;;5.80;;
73264;SDS011;61493;51.008;14.088;2023-06-22T01:51:34;7.70;;;5.53;;
73264;SDS011;61493;51.008;14.088;2023-06-22T01:53:59;7.88;;;5.10;;
73264;SDS011;61493;51.008;14.088;2023-06-22T01:56:25;8.85;;;5.80;;
73264;SDS011;61493;51.008;14.088;2023-06-22T01:58:55;9.30;;;6.03;;
73264;SDS011;61493;51.008;14.088;2023-06-22T02:01:23;9.07;;;6.13;;
73264;SDS011;61493;51.008;14.088;2023-06-22T02:04:24;11.50;;;6.40;;
73264;SDS011;61493;51.008;14.088;2023-06-22T02:06:42;10.10;;;6.00;;
73264;SDS011;61493;51.008;14.088;2023-06-22T02:09:12;9.23;;;5.72;;
73264;SDS011;61493;51.008;14.088;2023-06-22T02:11:37;8.32;;;5.95;;
73264;SDS011;61493;51.008;14.088;2023-06-22T02:14:05;9.05;;;5.43;;
73264;SDS011;61493;51.008;14.088;2023-06-22T02:16:30;7.80;;;5.40;;
73264;SDS011;61493;51.008;14.088;2023-06-22T02:18:56;10.02;;;5.82;;
73264;SDS011;61493;51.008;14.088;2023-06-22T02:21:23;8.43;;;5.22;;
73264;SDS011;61493;51.008;14.088;2023-06-22T02:23:48;7.45;;;5.60;;
73264;SDS011;61493;51.008;14.088;2023-06-22T02:26:13;10.30;;;5.83;;
73264;SDS011;61493;51.008;14.088;2023-06-22T02:28:38;13.30;;;5.85;;
73264;SDS011;61493;51.008;14.088;2023-06-22T02:31:04;8.63;;;5.30;;
73264;SDS011;61493;51.008;14.088;2023-06-22T02:33:29;10.65;;;5.97;;
73264;SDS011;61493;51.008;14.088;2023-06-22T02:35:54;8.67;;;6.63;;
73264;SDS011;61493;51.008;14.088;2023-06-22T02:38:19;9.82;;;6.55;;
73264;SDS011;61493;51.008;14.088;2023-06-22T02:40:45;10.20;;;6.63;;
73264;SDS011;61493;51.008;14.088;2023-06-22T02:43:10;9.60;;;5.78;;
73264;SDS011;61493;51.008;14.088;2023-06-22T02:45:35;9.27;;;5.73;;
73264;SDS011;61493;51.008;14.088;2023-06-22T02:48:00;11.07;;;7.13;;
73264;SDS011;61493;51.008;14.088;2023-06-22T02:50:26;8.63;;;6.13;;
73264;SDS011;61493;51.008;14.088;2023-06-22T02:52:51;9.40;;;6.17;;
73264;SDS011;61493;51.008;14.088;2023-06-22T02:55:16;9.88;;;6.57;;
73264;SDS011;61493;51.008;14.088;2023-06-22T02:57:41;9.70;;;6.40;;
73264;SDS011;61493;51.008;14.088;2023-06-22T03:00:09;8.88;;;5.60;;
73264;SDS011;61493;51.008;14.088;2023-06-22T03:02:45;9.48;;;5.88;;
73264;SDS011;61493;51.008;14.088;2023-06-22T03:05:11;9.55;;;5.63;;
73264;SDS011;61493;51.008;14.088;2023-06-22T03:07:41;10.90;;;6.25;;
73264;SDS011;61493;51.008;14.088;2023-06-22T03:10:10;7.88;;;6.03;;
73264;SDS011;61493;51.008;14.088;2023-06-22T03:12:37;6.10;;;4.40;;
73264;SDS011;61493;51.008;14.088;2023-06-22T03:15:03;10.77;;;6.15;;
73264;SDS011;61493;51.008;14.088;2023-06-22T03:17:28;9.88;;;5.13;;
73264;SDS011;61493;51.008;14.088;2023-06-22T03:19:53;7.40;;;5.28;;
73264;SDS011;61493;51.008;14.088;2023-06-22T03:22:19;9.95;;;5.63;;
73264;SDS011;61493;51.008;14.088;2023-06-22T03:24:44;8.23;;;5.72;;
73264;SDS011;61493;51.008;14.088;2023-06-22T03:27:09;10.02;;;6.07;;
73264;SDS011;61493;51.008;14.088;2023-06-22T03:29:34;6.88;;;4.88;;
73264;SDS011;61493;51.008;14.088;2023-06-22T03:32:00;10.00;;;6.33;;
73264;SDS011;61493;51.008;14.088;2023-06-22T03:34:25;8.73;;;5.93;;
73264;SDS011;61493;51.008;14.088;2023-06-22T03:36:50;9.43;;;6.28;;
73264;SDS011;61493;51.008;14.088;2023-06-22T03:39:15;9.53;;;5.57;;
73264;SDS011;61493;51.008;14.088;2023-06-22T03:41:40;9.27;;;6.73;;
73264;SDS011;61493;51.008;14.088;2023-06-22T03:44:05;7.68;;;5.15;;
73264;SDS011;61493;51.008;14.088;2023-06-22T03:46:31;10.52;;;6.35;;
73264;SDS011;61493;51.008;14.088;2023-06-22T03:48:56;9.35;;;6.05;;
73264;SDS011;61493;51.008;14.088;2023-06-22T03:51:21;7.80;;;6.25;;
73264;SDS011;61493;51.008;14.088;2023-06-22T03:53:46;8.27;;;5.93;;
73264;SDS011;61493;51.008;14.088;2023-06-22T03:56:13;12.27;;;7.38;;
73264;SDS011;61493;51.008;14.088;2023-06-22T03:58:38;7.80;;;5.70;;
73264;SDS011;61493;51.008;14.088;2023-06-22T04:01:07;9.35;;;5.38;;
73264;SDS011;61493;51.008;14.088;2023-06-22T04:03:36;9.95;;;6.60;;
73264;SDS011;61493;51.008;14.088;2023-06-22T04:06:01;8.33;;;5.90;;
73264;SDS011;61493;51.008;14.088;2023-06-22T04:08:26;7.23;;;5.03;;
73264;SDS011;61493;51.008;14.088;2023-06-22T04:10:52;8.95;;;5.18;;
73264;SDS011;61493;51.008;14.088;2023-06-22T04:13:17;9.87;;;6.57;;
73264;SDS011;61493;51.008;14.088;2023-06-22T04:15:42;8.75;;;5.18;;
73264;SDS011;61493;51.008;14.088;2023-06-22T04:18:07;7.63;;;5.72;;
73264;SDS011;61493;51.008;14.088;2023-06-22T04:20:32;8.77;;;5.57;;
73264;SDS011;61493;51.008;14.088;2023-06-22T04:22:57;9.07;;;5.33;;
73264;SDS011;61493;51.008;14.088;2023-06-22T04:25:23;8.68;;;5.93;;
73264;SDS011;61493;51.008;14.088;2023-06-22T04:27:48;11.00;;;6.72;;
73264;SDS011;61493;51.008;14.088;2023-06-22T04:30:13;14.73;;;6.77;;
73264;SDS011;61493;51.008;14.088;2023-06-22T04:32:41;10.27;;;6.50;;
73264;SDS011;61493;51.008;14.088;2023-06-22T04:35:06;6.88;;;5.68;;
73264;SDS011;61493;51.008;14.088;2023-06-22T04:37:32;11.10;;;7.03;;
73264;SDS011;61493;51.008;14.088;2023-06-22T04:39:58;9.07;;;6.32;;
73264;SDS011;61493;51.008;14.088;2023-06-22T04:42:24;9.82;;;6.88;;
73264;SDS011;61493;51.008;14.088;2023-06-22T04:44:50;10.02;;;6.20;;
73264;SDS011;61493;51.008;14.088;2023-06-22T04:47:15;8.13;;;6.40;;
73264;SDS011;61493;51.008;14.088;2023-06-22T04:49:40;8.57;;;6.30;;
73264;SDS011;61493;51.008;14.088;2023-06-22T04:52:08;9.68;;;6.32;;
73264;SDS011;61493;51.008;14.088;2023-06-22T04:54:34;10.23;;;6.63;;
73264;SDS011;61493;51.008;14.088;2023-06-22T04:57:00;9.57;;;6.78;;
73264;SDS011;61493;51.008;14.088;2023-06-22T04:59:26;7.28;;;5.93;;
73264;SDS011;61493;51.008;14.088;2023-06-22T05:01:53;8.20;;;6.80;;
73264;SDS011;61493;51.008;14.088;2023-06-22T05:04:18;7.68;;;5.85;;
73264;SDS011;61493;51.008;14.088;2023-06-22T05:06:44;10.02;;;6.43;;
73264;SDS011;61493;51.008;14.088;2023-06-22T05:09:10;8.75;;;6.93;;
73264;SDS011;61493;51.008;14.088;2023-06-22T05:11:37;8.25;;;6.55;;
73264;SDS011;61493;51.008;14.088;2023-06-22T05:14:02;8.52;;;6.50;;
73264;SDS011;61493;51.008;14.088;2023-06-22T05:16:27;8.63;;;6.47;;
73264;SDS011;61493;51.008;14.088;2023-06-22T05:18:52;10.70;;;6.83;;
73264;SDS011;61493;51.008;14.088;2023-06-22T05:21:21;9.60;;;6.80;;
73264;SDS011;61493;51.008;14.088;2023-06-22T05:23:46;8.45;;;6.60;;
73264;SDS011;61493;51.008;14.088;2023-06-22T05:26:11;9.73;;;7.57;;
73264;SDS011;61493;51.008;14.088;2023-06-22T05:28:36;8.45;;;6.55;;
73264;SDS011;61493;51.008;14.088;2023-06-22T05:31:01;10.13;;;7.67;;
73264;SDS011;61493;51.008;14.088;2023-06-22T05:33:27;7.43;;;6.10;;
73264;SDS011;61493;51.008;14.088;2023-06-22T05:35:52;8.90;;;6.73;;
73264;SDS011;61493;51.008;14.088;2023-06-22T05:38:17;9.17;;;7.13;;
73264;SDS011;61493;51.008;14.088;2023-06-22T05:40:42;8.37;;;7.13;;
73264;SDS011;61493;51.008;14.088;2023-06-22T05:43:07;9.30;;;7.43;;
73264;SDS011;61493;51.008;14.088;2023-06-22T05:45:32;8.55;;;7.57;;
73264;SDS011;61493;51.008;14.088;2023-06-22T05:47:58;8.68;;;7.75;;
73264;SDS011;61493;51.008;14.088;2023-06-22T05:50:23;9.97;;;7.93;;
73264;SDS011;61493;51.008;14.088;2023-06-22T05:55:23;8.93;;;7.57;;
73264;SDS011;61493;51.008;14.088;2023-06-22T05:57:48;8.83;;;7.67;;
73264;SDS011;61493;51.008;14.088;2023-06-22T06:00:13;7.97;;;7.03;;
73264;SDS011;61493;51.008;14.088;2023-06-22T06:02:39;8.38;;;7.35;;
73264;SDS011;61493;51.008;14.088;2023-06-22T06:05:09;9.45;;;7.65;;
73264;SDS011;61493;51.008;14.088;2023-06-22T06:07:34;8.02;;;7.00;;
73264;SDS011;61493;51.008;14.088;2023-06-22T06:09:59;8.85;;;7.88;;
73264;SDS011;61493;51.008;14.088;2023-06-22T06:12:25;8.00;;;6.85;;
73264;SDS011;61493;51.008;14.088;2023-06-22T06:14:50;9.05;;;7.47;;
73264;SDS011;61493;51.008;14.088;2023-06-22T06:17:16;9.52;;;8.38;;
73264;SDS011;61493;51.008;14.088;2023-06-22T06:19:41;7.95;;;7.10;;
73264;SDS011;61493;51.008;14.088;2023-06-22T06:22:06;9.20;;;7.57;;
73264;SDS011;61493;51.008;14.088;2023-06-22T06:24:32;8.65;;;7.50;;
73264;SDS011;61493;51.008;14.088;2023-06-22T06:26:57;8.87;;;7.30;;
73264;SDS011;61493;51.008;14.088;2023-06-22T06:29:23;9.00;;;7.70;;
73264;SDS011;61493;51.008;14.088;2023-06-22T06:31:48;8.70;;;7.18;;
73264;SDS011;61493;51.008;14.088;2023-06-22T06:34:13;8.73;;;7.20;;
73264;SDS011;61493;51.008;14.088;2023-06-22T06:36:39;9.40;;;7.03;;
73264;SDS011;61493;51.008;14.088;2023-06-22T06:39:04;7.87;;;7.03;;
73264;SDS011;61493;51.008;14.088;2023-06-22T06:41:30;8.77;;;7.63;;
73264;SDS011;61493;51.008;14.088;2023-06-22T06:43:55;8.03;;;6.93;;
73264;SDS011;61493;51.008;14.088;2023-06-22T06:46:20;9.20;;;7.27;;
73264;SDS011;61493;51.008;14.088;2023-06-22T06:48:45;8.57;;;7.67;;
73264;SDS011;61493;51.008;14.088;2023-06-22T06:51:11;9.30;;;7.63;;
73264;SDS011;61493;51.008;14.088;2023-06-22T06:53:37;8.50;;;7.67;;
73264;SDS011;61493;51.008;14.088;2023-06-22T06:56:02;8.20;;;6.50;;
73264;SDS011;61493;51.008;14.088;2023-06-22T06:58:28;9.25;;;8.13;;
73264;SDS011;61493;51.008;14.088;2023-06-22T07:00:53;8.60;;;7.70;;
73264;SDS011;61493;51.008;14.088;2023-06-22T07:03:18;7.97;;;7.17;;
73264;SDS011;61493;51.008;14.088;2023-06-22T07:05:44;10.33;;;7.40;;
73264;SDS011;61493;51.008;14.088;2023-06-22T07:08:09;9.40;;;7.47;;
73264;SDS011;61493;51.008;14.088;2023-06-22T07:10:34;8.27;;;7.47;;
73264;SDS011;61493;51.008;14.088;2023-06-22T07:12:59;8.03;;;7.23;;
73264;SDS011;61493;51.008;14.088;2023-06-22T07:15:24;8.77;;;7.83;;
73264;SDS011;61493;51.008;14.088;2023-06-22T07:17:50;9.32;;;7.40;;
73264;SDS011;61493;51.008;14.088;2023-06-22T07:20:15;8.83;;;7.33;;
73264;SDS011;61493;51.008;14.088;2023-06-22T07:22:41;8.83;;;7.30;;
73264;SDS011;61493;51.008;14.088;2023-06-22T07:25:07;8.15;;;7.25;;
73264;SDS011;61493;51.008;14.088;2023-06-22T07:27:39;9.05;;;7.05;;
73264;SDS011;61493;51.008;14.088;2023-06-22T07:30:08;10.02;;;7.13;;
73264;SDS011;61493;51.008;14.088;2023-06-22T07:32:33;9.43;;;7.05;;
73264;SDS011;61493;51.008;14.088;2023-06-22T07:34:58;8.00;;;7.20;;
73264;SDS011;61493;51.008;14.088;2023-06-22T07:37:23;10.03;;;6.37;;
73264;SDS011;61493;51.008;14.088;2023-06-22T07:39:49;7.15;;;6.35;;
73264;SDS011;61493;51.008;14.088;2023-06-22T07:42:18;8.07;;;6.50;;
73264;SDS011;61493;51.008;14.088;2023-06-22T07:44:43;6.87;;;5.63;;
73264;SDS011;61493;51.008;14.088;2023-06-22T07:47:09;9.20;;;6.05;;
73264;SDS011;61493;51.008;14.088;2023-06-22T07:49:34;8.43;;;6.22;;
73264;SDS011;61493;51.008;14.088;2023-06-22T07:51:59;8.20;;;5.80;;
73264;SDS011;61493;51.008;14.088;2023-06-22T07:54:25;8.30;;;6.10;;
73264;SDS011;61493;51.008;14.088;2023-06-22T07:56:50;7.57;;;6.07;;
73264;SDS011;61493;51.008;14.088;2023-06-22T07:59:16;8.37;;;5.93;;
73264;SDS011;61493;51.008;14.088;2023-06-22T08:01:41;8.32;;;6.13;;
73264;SDS011;61493;51.008;14.088;2023-06-22T08:04:07;7.13;;;6.05;;
73264;SDS011;61493;51.008;14.088;2023-06-22T08:06:32;6.72;;;5.97;;
73264;SDS011;61493;51.008;14.088;2023-06-22T08:08:57;7.20;;;5.90;;
73264;SDS011;61493;51.008;14.088;2023-06-22T08:11:24;6.72;;;5.80;;
73264;SDS011;61493;51.008;14.088;2023-06-22T08:13:50;6.90;;;5.38;;
73264;SDS011;61493;51.008;14.088;2023-06-22T08:16:15;9.18;;;6.35;;
73264;SDS011;61493;51.008;14.088;2023-06-22T08:18:40;6.97;;;6.10;;
73264;SDS011;61493;51.008;14.088;2023-06-22T08:21:05;9.10;;;6.57;;
73264;SDS011;61493;51.008;14.088;2023-06-22T08:23:30;6.57;;;5.80;;
73264;SDS011;61493;51.008;14.088;2023-06-22T08:25:56;9.55;;;5.80;;
73264;SDS011;61493;51.008;14.088;2023-06-22T08:28:21;7.65;;;6.30;;
73264;SDS011;61493;51.008;14.088;2023-06-22T08:30:46;6.77;;;6.07;;
73264;SDS011;61493;51.008;14.088;2023-06-22T08:33:11;8.63;;;5.50;;
73264;SDS011;61493;51.008;14.088;2023-06-22T08:35:37;6.32;;;5.55;;
73264;SDS011;61493;51.008;14.088;2023-06-22T08:38:03;7.57;;;5.55;;
73264;SDS011;61493;51.008;14.088;2023-06-22T08:40:28;6.55;;;5.85;;
73264;SDS011;61493;51.008;14.088;2023-06-22T08:42:54;7.13;;;6.00;;
73264;SDS011;61493;51.008;14.088;2023-06-22T08:45:19;7.88;;;5.85;;
73264;SDS011;61493;51.008;14.088;2023-06-22T08:47:45;7.23;;;5.70;;
73264;SDS011;61493;51.008;14.088;2023-06-22T08:50:10;7.70;;;6.03;;
73264;SDS011;61493;51.008;14.088;2023-06-22T08:52:36;7.07;;;5.78;;
73264;SDS011;61493;51.008;14.088;2023-06-22T08:55:02;7.63;;;5.63;;
73264;SDS011;61493;51.008;14.088;2023-06-22T08:57:27;6.18;;;5.57;;
73264;SDS011;61493;51.008;14.088;2023-06-22T08:59:52;7.53;;;6.05;;
73264;SDS011;61493;51.008;14.088;2023-06-22T09:02:18;8.60;;;6.27;;
73264;SDS011;61493;51.008;14.088;2023-06-22T09:04:44;8.00;;;6.18;;
73264;SDS011;61493;51.008;14.088;2023-06-22T09:07:09;6.80;;;6.03;;
73264;SDS011;61493;51.008;14.088;2023-06-22T09:09:34;8.13;;;5.80;;
73264;SDS011;61493;51.008;14.088;2023-06-22T09:11:59;6.60;;;5.13;;
73264;SDS011;61493;51.008;14.088;2023-06-22T09:14:24;6.80;;;6.00;;
73264;SDS011;61493;51.008;14.088;2023-06-22T09:16:50;6.63;;;5.80;;
73264;SDS011;61493;51.008;14.088;2023-06-22T09:19:15;7.32;;;5.82;;
73264;SDS011;61493;51.008;14.088;2023-06-22T09:21:40;8.40;;;6.10;;
73264;SDS011;61493;51.008;14.088;2023-06-22T09:24:05;6.93;;;5.67;;
73264;SDS011;61493;51.008;14.088;2023-06-22T09:26:30;8.15;;;5.78;;
73264;SDS011;61493;51.008;14.088;2023-06-22T09:28:56;7.30;;;5.97;;
73264;SDS011;61493;51.008;14.088;2023-06-22T09:31:21;7.17;;;5.87;;
73264;SDS011;61493;51.008;14.088;2023-06-22T09:33:52;7.25;;;5.38;;
73264;SDS011;61493;51.008;14.088;2023-06-22T09:36:18;5.90;;;5.15;;
73264;SDS011;61493;51.008;14.088;2023-06-22T09:38:43;6.80;;;6.10;;
73264;SDS011;61493;51.008;14.088;2023-06-22T09:41:08;7.77;;;5.73;;
73264;SDS011;61493;51.008;14.088;2023-06-22T09:43:33;7.13;;;5.65;;
73264;SDS011;61493;51.008;14.088;2023-06-22T09:46:02;6.45;;;5.40;;
73264;SDS011;61493;51.008;14.088;2023-06-22T09:48:27;7.47;;;5.72;;
73264;SDS011;61493;51.008;14.088;2023-06-22T09:50:53;8.02;;;5.78;;
73264;SDS011;61493;51.008;14.088;2023-06-22T09:53:18;6.97;;;5.78;;
73264;SDS011;61493;51.008;14.088;2023-06-22T09:55:43;9.43;;;5.63;;
73264;SDS011;61493;51.008;14.088;2023-06-22T09:58:08;7.75;;;6.13;;
73264;SDS011;61493;51.008;14.088;2023-06-22T10:00:34;8.48;;;5.43;;
73264;SDS011;61493;51.008;14.088;2023-06-22T10:02:59;8.13;;;5.90;;
73264;SDS011;61493;51.008;14.088;2023-06-22T10:05:25;6.78;;;5.82;;
73264;SDS011;61493;51.008;14.088;2023-06-22T10:07:50;6.50;;;5.43;;
73264;SDS011;61493;51.008;14.088;2023-06-22T10:10:15;8.30;;;5.97;;
73264;SDS011;61493;51.008;14.088;2023-06-22T10:12:42;8.02;;;6.38;;
73264;SDS011;61493;51.008;14.088;2023-06-22T10:15:07;7.10;;;5.82;;
73264;SDS011;61493;51.008;14.088;2023-06-22T10:17:33;8.85;;;5.70;;
73264;SDS011;61493;51.008;14.088;2023-06-22T10:19:58;7.32;;;5.65;;
73264;SDS011;61493;51.008;14.088;2023-06-22T10:22:23;6.97;;;5.73;;
73264;SDS011;61493;51.008;14.088;2023-06-22T10:24:48;6.72;;;5.60;;
73264;SDS011;61493;51.008;14.088;2023-06-22T10:27:13;6.28;;;5.28;;
73264;SDS011;61493;51.008;14.088;2023-06-22T10:29:39;7.40;;;5.73;;
73264;SDS011;61493;51.008;14.088;2023-06-22T10:32:04;6.43;;;5.33;;
73264;SDS011;61493;51.008;14.088;2023-06-22T10:34:29;6.97;;;5.85;;
73264;SDS011;61493;51.008;14.088;2023-06-22T10:36:54;5.78;;;5.05;;
73264;SDS011;61493;51.008;14.088;2023-06-22T10:39:20;6.70;;;5.60;;
73264;SDS011;61493;51.008;14.088;2023-06-22T10:41:45;7.93;;;5.60;;
73264;SDS011;61493;51.008;14.088;2023-06-22T10:44:10;6.40;;;5.43;;
73264;SDS011;61493;51.008;14.088;2023-06-22T10:46:35;6.35;;;5.65;;
73264;SDS011;61493;51.008;14.088;2023-06-22T10:49:01;8.30;;;6.17;;
73264;SDS011;61493;51.008;14.088;2023-06-22T10:51:26;8.40;;;6.60;;
73264;SDS011;61493;51.008;14.088;2023-06-22T10:53:53;6.43;;;5.78;;
73264;SDS011;61493;51.008;14.088;2023-06-22T10:56:18;6.33;;;5.60;;
73264;SDS011;61493;51.008;14.088;2023-06-22T10:58:44;7.10;;;6.03;;
73264;SDS011;61493;51.008;14.088;2023-06-22T11:01:09;6.32;;;5.50;;
73264;SDS011;61493;51.008;14.088;2023-06-22T11:03:34;7.03;;;5.63;;
73264;SDS011;61493;51.008;14.088;2023-06-22T11:05:59;6.82;;;5.20;;
73264;SDS011;61493;51.008;14.088;2023-06-22T11:08:25;7.35;;;6.35;;
73264;SDS011;61493;51.008;14.088;2023-06-22T11:10:50;6.93;;;6.17;;
73264;SDS011;61493;51.008;14.088;2023-06-22T11:13:16;6.50;;;5.75;;
73264;SDS011;61493;51.008;14.088;2023-06-22T11:15:41;6.73;;;6.03;;
73264;SDS011;61493;51.008;14.088;2023-06-22T11:18:06;6.43;;;5.10;;
73264;SDS011;61493;51.008;14.088;2023-06-22T11:20:32;7.60;;;6.38;;
73264;SDS011;61493;51.008;14.088;2023-06-22T11:22:59;7.25;;;5.80;;
73264;SDS011;61493;51.008;14.088;2023-06-22T11:25:24;7.32;;;6.55;;
73264;SDS011;61493;51.008;14.088;2023-06-22T11:27:50;7.00;;;5.70;;
73264;SDS011;61493;51.008;14.088;2023-06-22T11:30:16;6.30;;;5.65;;
73264;SDS011;61493;51.008;14.088;2023-06-22T11:32:41;6.07;;;5.33;;
73264;SDS011;61493;51.008;14.088;2023-06-22T11:35:06;7.13;;;5.80;;
73264;SDS011;61493;51.008;14.088;2023-06-22T11:37:32;7.20;;;6.13;;
73264;SDS011;61493;51.008;14.088;2023-06-22T11:39:57;6.10;;;5.50;;
73264;SDS011;61493;51.008;14.088;2023-06-22T11:42:23;7.18;;;5.72;;
73264;SDS011;61493;51.008;14.088;2023-06-22T11:44:48;6.33;;;5.73;;
73264;SDS011;61493;51.008;14.088;2023-06-22T11:47:13;8.32;;;6.00;;
73264;SDS011;61493;51.008;14.088;2023-06-22T11:49:39;7.13;;;5.53;;
73264;SDS011;61493;51.008;14.088;2023-06-22T11:52:05;7.75;;;5.57;;
73264;SDS011;61493;51.008;14.088;2023-06-22T11:54:30;8.07;;;5.03;;
73264;SDS011;61493;51.008;14.088;2023-06-22T11:56:55;8.40;;;5.93;;
73264;SDS011;61493;51.008;14.088;2023-06-22T11:59:20;7.32;;;5.82;;
73264;SDS011;61493;51.008;14.088;2023-06-22T12:01:47;6.35;;;5.63;;
73264;SDS011;61493;51.008;14.088;2023-06-22T12:04:12;7.57;;;6.03;;
73264;SDS011;61493;51.008;14.088;2023-06-22T12:06:37;6.13;;;5.53;;
73264;SDS011;61493;51.008;14.088;2023-06-22T12:09:03;7.35;;;5.47;;
73264;SDS011;61493;51.008;14.088;2023-06-22T12:11:29;7.97;;;5.72;;
73264;SDS011;61493;51.008;14.088;2023-06-22T12:13:54;8.07;;;5.33;;
73264;SDS011;61493;51.008;14.088;2023-06-22T12:16:19;8.68;;;5.72;;
73264;SDS011;61493;51.008;14.088;2023-06-22T12:18:46;7.60;;;5.38;;
73264;SDS011;61493;51.008;14.088;2023-06-22T12:21:11;8.67;;;6.30;;
73264;SDS011;61493;51.008;14.088;2023-06-22T12:23:36;7.03;;;5.90;;
73264;SDS011;61493;51.008;14.088;2023-06-22T12:26:02;8.50;;;6.43;;
73264;SDS011;61493;51.008;14.088;2023-06-22T12:28:27;6.83;;;6.07;;
73264;SDS011;61493;51.008;14.088;2023-06-22T12:30:52;7.80;;;6.00;;
73264;SDS011;61493;51.008;14.088;2023-06-22T12:33:17;7.75;;;6.18;;
73264;SDS011;61493;51.008;14.088;2023-06-22T12:35:43;8.38;;;6.32;;
73264;SDS011;61493;51.008;14.088;2023-06-22T12:38:10;7.22;;;6.53;;
73264;SDS011;61493;51.008;14.088;2023-06-22T12:40:35;7.77;;;6.63;;
73264;SDS011;61493;51.008;14.088;2023-06-22T12:43:00;9.52;;;6.50;;
73264;SDS011;61493;51.008;14.088;2023-06-22T12:45:27;8.85;;;7.28;;
73264;SDS011;61493;51.008;14.088;2023-06-22T12:47:54;10.48;;;7.05;;
73264;SDS011;61493;51.008;14.088;2023-06-22T12:50:19;7.50;;;6.70;;
73264;SDS011;61493;51.008;14.088;2023-06-22T12:52:44;7.63;;;6.60;;
73264;SDS011;61493;51.008;14.088;2023-06-22T12:55:09;9.20;;;6.72;;
73264;SDS011;61493;51.008;14.088;2023-06-22T12:57:34;7.80;;;6.28;;
73264;SDS011;61493;51.008;14.088;2023-06-22T13:00:00;6.72;;;6.03;;
73264;SDS011;61493;51.008;14.088;2023-06-22T13:02:25;8.40;;;6.68;;
73264;SDS011;61493;51.008;14.088;2023-06-22T13:04:51;8.82;;;7.43;;
73264;SDS011;61493;51.008;14.088;2023-06-22T13:07:16;8.20;;;6.40;;
73264;SDS011;61493;51.008;14.088;2023-06-22T13:09:41;7.75;;;5.95;;
73264;SDS011;61493;51.008;14.088;2023-06-22T13:12:06;7.47;;;6.78;;
73264;SDS011;61493;51.008;14.088;2023-06-22T13:14:32;9.32;;;6.50;;
73264;SDS011;61493;51.008;14.088;2023-06-22T13:16:57;10.38;;;6.18;;
73264;SDS011;61493;51.008;14.088;2023-06-22T13:19:22;8.18;;;6.75;;
73264;SDS011;61493;51.008;14.088;2023-06-22T13:21:47;10.70;;;7.23;;
73264;SDS011;61493;51.008;14.088;2023-06-22T13:24:12;7.83;;;5.90;;
73264;SDS011;61493;51.008;14.088;2023-06-22T13:26:37;8.65;;;6.72;;
73264;SDS011;61493;51.008;14.088;2023-06-22T13:29:03;7.90;;;6.30;;
73264;SDS011;61493;51.008;14.088;2023-06-22T13:31:28;7.83;;;6.73;;
73264;SDS011;61493;51.008;14.088;2023-06-22T13:33:54;7.43;;;6.20;;
73264;SDS011;61493;51.008;14.088;2023-06-22T13:36:19;10.30;;;6.97;;
73264;SDS011;61493;51.008;14.088;2023-06-22T13:38:44;8.57;;;7.00;;
73264;SDS011;61493;51.008;14.088;2023-06-22T13:41:10;7.68;;;6.00;;
73264;SDS011;61493;51.008;14.088;2023-06-22T13:43:35;7.43;;;6.40;;
73264;SDS011;61493;51.008;14.088;2023-06-22T13:46:00;9.20;;;7.30;;
73264;SDS011;61493;51.008;14.088;2023-06-22T13:48:26;8.27;;;6.72;;
73264;SDS011;61493;51.008;14.088;2023-06-22T13:50:53;8.68;;;7.00;;
73264;SDS011;61493;51.008;14.088;2023-06-22T13:53:18;7.87;;;6.63;;
73264;SDS011;61493;51.008;14.088;2023-06-22T13:55:43;10.03;;;7.33;;
73264;SDS011;61493;51.008;14.088;2023-06-22T13:58:09;10.23;;;7.10;;
73264;SDS011;61493;51.008;14.088;2023-06-22T14:00:34;10.45;;;7.22;;
73264;SDS011;61493;51.008;14.088;2023-06-22T14:02:59;14.35;;;7.25;;
73264;SDS011;61493;51.008;14.088;2023-06-22T14:05:24;7.90;;;7.10;;
73264;SDS011;61493;51.008;14.088;2023-06-22T14:07:49;9.00;;;7.20;;
73264;SDS011;61493;51.008;14.088;2023-06-22T14:10:14;8.05;;;6.70;;
73264;SDS011;61493;51.008;14.088;2023-06-22T14:12:40;8.30;;;6.83;;
73264;SDS011;61493;51.008;14.088;2023-06-22T14:15:05;9.67;;;7.63;;
73264;SDS011;61493;51.008;14.088;2023-06-22T14:17:30;8.43;;;6.90;;
73264;SDS011;61493;51.008;14.088;2023-06-22T14:19:55;9.60;;;6.68;;
73264;SDS011;61493;51.008;14.088;2023-06-22T14:22:21;9.23;;;7.47;;
73264;SDS011;61493;51.008;14.088;2023-06-22T14:24:47;9.57;;;7.15;;
73264;SDS011;61493;51.008;14.088;2023-06-22T14:27:12;8.15;;;7.15;;
73264;SDS011;61493;51.008;14.088;2023-06-22T14:29:37;8.13;;;7.30;;